sensor_id;sensor_type;location;lat;lon;timestamp;P1;durP1;ratioP1;P2;durP2;ratioP2
22357;SDS011;11346;50.150;8.150;2022-09-16T00:01:56;6.40;;;1.60;;
22357;SDS011;11346;50.150;8.150;2022-09-16T00:04:23;7.30;;;1.70;;
22357;SDS011;11346;50.150;8.150;2022-09-16T00:06:50;3.93;;;1.60;;
22357;SDS011;11346;50.150;8.150;2022-09-16T00:09:17;2.23;;;1.67;;
22357;SDS011;11346;50.150;8.150;2022-09-16T00:11:44;8.43;;;1.87;;
22357;SDS011;11346;50.150;8.150;2022-09-16T00:14:11;1.63;;;1.50;;
22357;SDS011;11346;50.150;8.150;2022-09-16T00:16:39;4.20;;;1.80;;
22357;SDS011;11346;50.150;8.150;2022-09-16T00:19:07;10.67;;;1.70;;
22357;SDS011;11346;50.150;8.150;2022-09-16T00:21:34;6.97;;;1.90;;
22357;SDS011;11346;50.150;8.150;2022-09-16T00:24:01;5.00;;;1.47;;
22357;SDS011;11346;50.150;8.150;2022-09-16T00:26:28;3.97;;;1.50;;
22357;SDS011;11346;50.150;8.150;2022-09-16T00:28:55;6.50;;;1.90;;
22357;SDS011;11346;50.150;8.150;2022-09-16T00:31:22;3.63;;;1.60;;
22357;SDS011;11346;50.150;8.150;2022-09-16T00:33:50;8.47;;;1.50;;
22357;SDS011;11346;50.150;8.150;2022-09-16T00:36:18;4.40;;;1.60;;
22357;SDS011;11346;50.150;8.150;2022-09-16T00:38:48;5.80;;;1.50;;
22357;SDS011;11346;50.150;8.150;2022-09-16T00:41:17;7.67;;;1.70;;
22357;SDS011;11346;50.150;8.150;2022-09-16T00:43:45;3.67;;;1.53;;
22357;SDS011;11346;50.150;8.150;2022-09-16T00:46:12;6.27;;;2.00;;
22357;SDS011;11346;50.150;8.150;2022-09-16T00:48:39;3.43;;;1.27;;
22357;SDS011;11346;50.150;8.150;2022-09-16T00:51:08;7.17;;;1.80;;
22357;SDS011;11346;50.150;8.150;2022-09-16T00:53:36;7.27;;;1.63;;
22357;SDS011;11346;50.150;8.150;2022-09-16T00:56:05;5.33;;;1.60;;
22357;SDS011;11346;50.150;8.150;2022-09-16T00:58:33;7.67;;;1.60;;
22357;SDS011;11346;50.150;8.150;2022-09-16T01:01:02;1.67;;;1.57;;
22357;SDS011;11346;50.150;8.150;2022-09-16T01:03:30;2.93;;;1.30;;
22357;SDS011;11346;50.150;8.150;2022-09-16T01:05:57;2.37;;;1.40;;
22357;SDS011;11346;50.150;8.150;2022-09-16T01:08:26;1.93;;;1.33;;
22357;SDS011;11346;50.150;8.150;2022-09-16T01:10:53;6.67;;;1.70;;
22357;SDS011;11346;50.150;8.150;2022-09-16T01:13:20;4.73;;;1.27;;
22357;SDS011;11346;50.150;8.150;2022-09-16T01:15:57;4.50;;;1.93;;
22357;SDS011;11346;50.150;8.150;2022-09-16T01:18:28;5.57;;;1.50;;
22357;SDS011;11346;50.150;8.150;2022-09-16T01:29:16;3.53;;;1.40;;
22357;SDS011;11346;50.150;8.150;2022-09-16T01:31:49;4.47;;;1.53;;
22357;SDS011;11346;50.150;8.150;2022-09-16T01:34:21;5.13;;;1.30;;
22357;SDS011;11346;50.150;8.150;2022-09-16T01:36:54;5.43;;;1.87;;
22357;SDS011;11346;50.150;8.150;2022-09-16T01:39:26;4.00;;;1.60;;
22357;SDS011;11346;50.150;8.150;2022-09-16T01:41:56;3.43;;;1.33;;
22357;SDS011;11346;50.150;8.150;2022-09-16T01:44:28;5.07;;;1.50;;
22357;SDS011;11346;50.150;8.150;2022-09-16T01:47:00;5.00;;;1.40;;
22357;SDS011;11346;50.150;8.150;2022-09-16T01:49:32;4.40;;;1.40;;
22357;SDS011;11346;50.150;8.150;2022-09-16T01:52:01;4.10;;;1.47;;
22357;SDS011;11346;50.150;8.150;2022-09-16T01:54:32;5.07;;;1.67;;
22357;SDS011;11346;50.150;8.150;2022-09-16T01:57:04;6.47;;;1.50;;
22357;SDS011;11346;50.150;8.150;2022-09-16T01:59:34;3.03;;;1.33;;
22357;SDS011;11346;50.150;8.150;2022-09-16T02:02:05;5.67;;;1.40;;
22357;SDS011;11346;50.150;8.150;2022-09-16T02:04:39;4.50;;;1.70;;
22357;SDS011;11346;50.150;8.150;2022-09-16T02:07:07;3.07;;;1.40;;
22357;SDS011;11346;50.150;8.150;2022-09-16T02:09:36;2.37;;;1.27;;
22357;SDS011;11346;50.150;8.150;2022-09-16T02:12:05;6.07;;;1.30;;
22357;SDS011;11346;50.150;8.150;2022-09-16T02:14:34;5.30;;;1.50;;
22357;SDS011;11346;50.150;8.150;2022-09-16T02:17:05;4.07;;;1.30;;
22357;SDS011;11346;50.150;8.150;2022-09-16T02:19:33;3.43;;;1.37;;
22357;SDS011;11346;50.150;8.150;2022-09-16T02:22:03;2.90;;;1.23;;
22357;SDS011;11346;50.150;8.150;2022-09-16T02:24:32;5.43;;;1.40;;
22357;SDS011;11346;50.150;8.150;2022-09-16T02:27:02;6.37;;;2.53;;
22357;SDS011;11346;50.150;8.150;2022-09-16T02:29:34;4.37;;;1.40;;
22357;SDS011;11346;50.150;8.150;2022-09-16T02:32:04;6.43;;;1.70;;
22357;SDS011;11346;50.150;8.150;2022-09-16T02:34:33;3.53;;;1.37;;
22357;SDS011;11346;50.150;8.150;2022-09-16T02:37:03;3.13;;;1.30;;
22357;SDS011;11346;50.150;8.150;2022-09-16T02:39:31;5.03;;;1.40;;
22357;SDS011;11346;50.150;8.150;2022-09-16T02:41:59;2.40;;;1.30;;
22357;SDS011;11346;50.150;8.150;2022-09-16T02:44:27;6.37;;;1.60;;
22357;SDS011;11346;50.150;8.150;2022-09-16T02:46:54;7.77;;;1.50;;
22357;SDS011;11346;50.150;8.150;2022-09-16T02:49:26;2.27;;;1.50;;
22357;SDS011;11346;50.150;8.150;2022-09-16T02:51:56;4.37;;;1.70;;
22357;SDS011;11346;50.150;8.150;2022-09-16T02:54:24;2.80;;;1.50;;
22357;SDS011;11346;50.150;8.150;2022-09-16T02:56:54;6.10;;;1.40;;
22357;SDS011;11346;50.150;8.150;2022-09-16T02:59:21;4.77;;;1.50;;
22357;SDS011;11346;50.150;8.150;2022-09-16T03:01:49;4.30;;;1.57;;
22357;SDS011;11346;50.150;8.150;2022-09-16T03:04:17;5.97;;;1.90;;
22357;SDS011;11346;50.150;8.150;2022-09-16T03:06:46;3.80;;;1.50;;
22357;SDS011;11346;50.150;8.150;2022-09-16T03:09:14;3.40;;;1.40;;
22357;SDS011;11346;50.150;8.150;2022-09-16T03:11:48;3.13;;;1.97;;
22357;SDS011;11346;50.150;8.150;2022-09-16T03:14:36;10.17;;;2.87;;
22357;SDS011;11346;50.150;8.150;2022-09-16T03:17:08;3.63;;;1.60;;
22357;SDS011;11346;50.150;8.150;2022-09-16T03:19:38;8.33;;;1.70;;
22357;SDS011;11346;50.150;8.150;2022-09-16T03:22:12;3.93;;;1.30;;
22357;SDS011;11346;50.150;8.150;2022-09-16T03:24:44;4.30;;;1.60;;
22357;SDS011;11346;50.150;8.150;2022-09-16T03:27:16;5.17;;;1.60;;
22357;SDS011;11346;50.150;8.150;2022-09-16T03:29:45;7.13;;;1.83;;
22357;SDS011;11346;50.150;8.150;2022-09-16T03:32:16;6.63;;;1.57;;
22357;SDS011;11346;50.150;8.150;2022-09-16T03:34:45;9.50;;;1.50;;
22357;SDS011;11346;50.150;8.150;2022-09-16T03:37:16;3.90;;;1.50;;
22357;SDS011;11346;50.150;8.150;2022-09-16T03:39:46;4.83;;;1.80;;
22357;SDS011;11346;50.150;8.150;2022-09-16T03:42:15;9.67;;;1.60;;
22357;SDS011;11346;50.150;8.150;2022-09-16T03:44:42;6.23;;;2.40;;
22357;SDS011;11346;50.150;8.150;2022-09-16T03:47:09;6.37;;;2.00;;
22357;SDS011;11346;50.150;8.150;2022-09-16T03:49:37;8.07;;;2.30;;
22357;SDS011;11346;50.150;8.150;2022-09-16T03:52:04;3.53;;;1.50;;
22357;SDS011;11346;50.150;8.150;2022-09-16T03:54:33;5.63;;;2.17;;
22357;SDS011;11346;50.150;8.150;2022-09-16T03:57:00;7.23;;;1.63;;
22357;SDS011;11346;50.150;8.150;2022-09-16T03:59:27;6.50;;;1.70;;
22357;SDS011;11346;50.150;8.150;2022-09-16T04:01:54;3.87;;;1.70;;
22357;SDS011;11346;50.150;8.150;2022-09-16T04:04:22;3.60;;;1.70;;
22357;SDS011;11346;50.150;8.150;2022-09-16T04:06:49;8.40;;;2.13;;
22357;SDS011;11346;50.150;8.150;2022-09-16T04:09:16;4.60;;;1.90;;
22357;SDS011;11346;50.150;8.150;2022-09-16T04:11:44;7.87;;;1.73;;
22357;SDS011;11346;50.150;8.150;2022-09-16T04:14:11;8.60;;;1.70;;
22357;SDS011;11346;50.150;8.150;2022-09-16T04:16:38;4.83;;;2.13;;
22357;SDS011;11346;50.150;8.150;2022-09-16T04:19:05;1.80;;;1.60;;
22357;SDS011;11346;50.150;8.150;2022-09-16T04:21:32;9.40;;;1.93;;
22357;SDS011;11346;50.150;8.150;2022-09-16T04:24:00;3.43;;;1.70;;
22357;SDS011;11346;50.150;8.150;2022-09-16T04:26:27;4.33;;;1.47;;
22357;SDS011;11346;50.150;8.150;2022-09-16T04:28:55;4.13;;;1.60;;
22357;SDS011;11346;50.150;8.150;2022-09-16T04:31:22;3.17;;;1.73;;
22357;SDS011;11346;50.150;8.150;2022-09-16T04:33:49;6.67;;;1.90;;
22357;SDS011;11346;50.150;8.150;2022-09-16T04:36:17;5.90;;;1.80;;
22357;SDS011;11346;50.150;8.150;2022-09-16T04:38:45;5.87;;;1.77;;
22357;SDS011;11346;50.150;8.150;2022-09-16T04:41:13;3.97;;;1.60;;
22357;SDS011;11346;50.150;8.150;2022-09-16T04:43:40;11.73;;;2.03;;
22357;SDS011;11346;50.150;8.150;2022-09-16T04:46:09;6.67;;;1.90;;
22357;SDS011;11346;50.150;8.150;2022-09-16T04:48:36;4.43;;;1.70;;
22357;SDS011;11346;50.150;8.150;2022-09-16T04:51:04;6.33;;;1.70;;
22357;SDS011;11346;50.150;8.150;2022-09-16T04:53:32;5.17;;;1.80;;
22357;SDS011;11346;50.150;8.150;2022-09-16T04:56:03;5.17;;;2.10;;
22357;SDS011;11346;50.150;8.150;2022-09-16T04:58:30;6.83;;;2.00;;
22357;SDS011;11346;50.150;8.150;2022-09-16T05:01:02;5.53;;;2.00;;
22357;SDS011;11346;50.150;8.150;2022-09-16T05:03:30;6.83;;;2.47;;
22357;SDS011;11346;50.150;8.150;2022-09-16T05:06:03;4.93;;;1.80;;
22357;SDS011;11346;50.150;8.150;2022-09-16T05:08:30;5.97;;;2.17;;
22357;SDS011;11346;50.150;8.150;2022-09-16T05:11:01;4.03;;;1.83;;
22357;SDS011;11346;50.150;8.150;2022-09-16T05:13:28;7.67;;;2.13;;
22357;SDS011;11346;50.150;8.150;2022-09-16T05:15:55;8.63;;;2.00;;
22357;SDS011;11346;50.150;8.150;2022-09-16T05:18:22;5.87;;;2.13;;
22357;SDS011;11346;50.150;8.150;2022-09-16T05:20:50;6.60;;;1.90;;
22357;SDS011;11346;50.150;8.150;2022-09-16T05:23:21;3.43;;;1.70;;
22357;SDS011;11346;50.150;8.150;2022-09-16T05:25:48;9.90;;;2.13;;
22357;SDS011;11346;50.150;8.150;2022-09-16T05:28:16;3.47;;;2.07;;
22357;SDS011;11346;50.150;8.150;2022-09-16T05:30:43;6.33;;;2.33;;
22357;SDS011;11346;50.150;8.150;2022-09-16T05:33:10;4.87;;;2.20;;
22357;SDS011;11346;50.150;8.150;2022-09-16T05:35:37;7.20;;;2.50;;
22357;SDS011;11346;50.150;8.150;2022-09-16T05:38:07;9.27;;;2.27;;
22357;SDS011;11346;50.150;8.150;2022-09-16T05:40:34;3.63;;;2.07;;
22357;SDS011;11346;50.150;8.150;2022-09-16T05:43:01;10.97;;;2.27;;
22357;SDS011;11346;50.150;8.150;2022-09-16T05:45:28;3.83;;;2.10;;
22357;SDS011;11346;50.150;8.150;2022-09-16T05:47:55;8.70;;;2.27;;
22357;SDS011;11346;50.150;8.150;2022-09-16T05:50:22;6.93;;;2.10;;
22357;SDS011;11346;50.150;8.150;2022-09-16T05:52:49;12.17;;;2.13;;
22357;SDS011;11346;50.150;8.150;2022-09-16T05:55:17;6.77;;;2.73;;
22357;SDS011;11346;50.150;8.150;2022-09-16T05:57:44;7.93;;;2.07;;
22357;SDS011;11346;50.150;8.150;2022-09-16T06:00:12;7.67;;;2.23;;
22357;SDS011;11346;50.150;8.150;2022-09-16T06:02:39;5.10;;;2.13;;
22357;SDS011;11346;50.150;8.150;2022-09-16T06:05:06;5.13;;;1.93;;
22357;SDS011;11346;50.150;8.150;2022-09-16T06:07:33;7.30;;;2.20;;
22357;SDS011;11346;50.150;8.150;2022-09-16T06:10:01;7.30;;;2.13;;
22357;SDS011;11346;50.150;8.150;2022-09-16T06:12:30;6.10;;;2.10;;
22357;SDS011;11346;50.150;8.150;2022-09-16T06:14:57;6.77;;;1.97;;
22357;SDS011;11346;50.150;8.150;2022-09-16T06:17:24;7.23;;;2.13;;
22357;SDS011;11346;50.150;8.150;2022-09-16T06:19:51;6.70;;;1.97;;
22357;SDS011;11346;50.150;8.150;2022-09-16T06:22:18;5.67;;;2.30;;
22357;SDS011;11346;50.150;8.150;2022-09-16T06:24:45;5.50;;;1.70;;
22357;SDS011;11346;50.150;8.150;2022-09-16T06:27:13;6.97;;;2.00;;
22357;SDS011;11346;50.150;8.150;2022-09-16T06:29:42;5.97;;;2.07;;
22357;SDS011;11346;50.150;8.150;2022-09-16T06:32:09;4.67;;;1.60;;
22357;SDS011;11346;50.150;8.150;2022-09-16T06:34:36;7.27;;;2.03;;
22357;SDS011;11346;50.150;8.150;2022-09-16T06:37:03;10.30;;;1.83;;
22357;SDS011;11346;50.150;8.150;2022-09-16T06:39:30;4.30;;;1.73;;
22357;SDS011;11346;50.150;8.150;2022-09-16T06:41:57;8.83;;;1.93;;
22357;SDS011;11346;50.150;8.150;2022-09-16T06:44:24;3.93;;;1.63;;
22357;SDS011;11346;50.150;8.150;2022-09-16T06:46:52;5.40;;;1.77;;
22357;SDS011;11346;50.150;8.150;2022-09-16T06:49:20;5.63;;;1.67;;
22357;SDS011;11346;50.150;8.150;2022-09-16T06:51:47;4.00;;;1.40;;
22357;SDS011;11346;50.150;8.150;2022-09-16T06:54:15;6.13;;;1.70;;
22357;SDS011;11346;50.150;8.150;2022-09-16T06:56:43;5.83;;;2.10;;
22357;SDS011;11346;50.150;8.150;2022-09-16T06:59:10;8.60;;;2.00;;
22357;SDS011;11346;50.150;8.150;2022-09-16T07:01:38;4.77;;;2.00;;
22357;SDS011;11346;50.150;8.150;2022-09-16T07:04:07;5.00;;;1.63;;
22357;SDS011;11346;50.150;8.150;2022-09-16T07:06:37;3.80;;;1.77;;
22357;SDS011;11346;50.150;8.150;2022-09-16T07:09:04;6.93;;;1.70;;
22357;SDS011;11346;50.150;8.150;2022-09-16T07:11:31;7.20;;;1.90;;
22357;SDS011;11346;50.150;8.150;2022-09-16T07:13:58;9.63;;;2.10;;
22357;SDS011;11346;50.150;8.150;2022-09-16T07:16:26;2.70;;;1.50;;
22357;SDS011;11346;50.150;8.150;2022-09-16T07:18:53;8.87;;;1.63;;
22357;SDS011;11346;50.150;8.150;2022-09-16T07:21:23;7.87;;;1.50;;
22357;SDS011;11346;50.150;8.150;2022-09-16T07:23:53;12.87;;;2.90;;
22357;SDS011;11346;50.150;8.150;2022-09-16T07:26:22;2.60;;;1.27;;
22357;SDS011;11346;50.150;8.150;2022-09-16T07:28:50;7.00;;;1.57;;
22357;SDS011;11346;50.150;8.150;2022-09-16T07:31:18;4.17;;;1.40;;
22357;SDS011;11346;50.150;8.150;2022-09-16T07:33:47;8.10;;;1.70;;
22357;SDS011;11346;50.150;8.150;2022-09-16T07:36:15;5.17;;;1.37;;
22357;SDS011;11346;50.150;8.150;2022-09-16T07:38:44;6.97;;;1.40;;
22357;SDS011;11346;50.150;8.150;2022-09-16T07:41:11;3.93;;;1.30;;
22357;SDS011;11346;50.150;8.150;2022-09-16T07:43:39;9.30;;;1.80;;
22357;SDS011;11346;50.150;8.150;2022-09-16T07:46:06;8.37;;;1.83;;
22357;SDS011;11346;50.150;8.150;2022-09-16T07:48:34;6.33;;;1.43;;
22357;SDS011;11346;50.150;8.150;2022-09-16T07:51:02;4.43;;;1.40;;
22357;SDS011;11346;50.150;8.150;2022-09-16T07:53:30;10.67;;;1.57;;
22357;SDS011;11346;50.150;8.150;2022-09-16T07:56:01;4.40;;;1.50;;
22357;SDS011;11346;50.150;8.150;2022-09-16T07:58:28;3.67;;;1.40;;
22357;SDS011;11346;50.150;8.150;2022-09-16T08:00:55;6.83;;;1.37;;
22357;SDS011;11346;50.150;8.150;2022-09-16T08:03:22;2.73;;;1.10;;
22357;SDS011;11346;50.150;8.150;2022-09-16T08:05:49;11.10;;;1.73;;
22357;SDS011;11346;50.150;8.150;2022-09-16T08:08:16;5.77;;;1.30;;
22357;SDS011;11346;50.150;8.150;2022-09-16T08:10:51;6.03;;;1.30;;
22357;SDS011;11346;50.150;8.150;2022-09-16T08:13:20;4.97;;;1.27;;
22357;SDS011;11346;50.150;8.150;2022-09-16T08:15:47;6.97;;;1.37;;
22357;SDS011;11346;50.150;8.150;2022-09-16T08:18:14;5.40;;;1.50;;
22357;SDS011;11346;50.150;8.150;2022-09-16T08:20:41;5.30;;;1.60;;
22357;SDS011;11346;50.150;8.150;2022-09-16T08:23:08;4.57;;;1.53;;
22357;SDS011;11346;50.150;8.150;2022-09-16T08:25:35;5.50;;;1.27;;
22357;SDS011;11346;50.150;8.150;2022-09-16T08:28:02;6.47;;;1.27;;
22357;SDS011;11346;50.150;8.150;2022-09-16T08:30:30;4.80;;;1.30;;
22357;SDS011;11346;50.150;8.150;2022-09-16T08:32:57;7.50;;;1.50;;
22357;SDS011;11346;50.150;8.150;2022-09-16T08:35:25;5.90;;;1.57;;
22357;SDS011;11346;50.150;8.150;2022-09-16T08:37:52;3.43;;;1.20;;
22357;SDS011;11346;50.150;8.150;2022-09-16T08:40:20;3.17;;;1.20;;
22357;SDS011;11346;50.150;8.150;2022-09-16T08:42:52;4.23;;;1.27;;
22357;SDS011;11346;50.150;8.150;2022-09-16T08:45:22;2.80;;;1.20;;
22357;SDS011;11346;50.150;8.150;2022-09-16T08:47:57;3.77;;;1.10;;
22357;SDS011;11346;50.150;8.150;2022-09-16T08:50:27;6.57;;;1.30;;
22357;SDS011;11346;50.150;8.150;2022-09-16T08:52:55;6.03;;;1.40;;
22357;SDS011;11346;50.150;8.150;2022-09-16T08:55:24;3.70;;;1.20;;
22357;SDS011;11346;50.150;8.150;2022-09-16T08:57:56;5.00;;;1.30;;
22357;SDS011;11346;50.150;8.150;2022-09-16T09:00:24;3.80;;;1.53;;
22357;SDS011;11346;50.150;8.150;2022-09-16T09:02:51;1.87;;;1.20;;
22357;SDS011;11346;50.150;8.150;2022-09-16T09:05:23;3.33;;;1.30;;
22357;SDS011;11346;50.150;8.150;2022-09-16T09:08:04;2.40;;;1.10;;
22357;SDS011;11346;50.150;8.150;2022-09-16T09:10:34;3.40;;;1.10;;
22357;SDS011;11346;50.150;8.150;2022-09-16T09:13:07;1.97;;;1.07;;
22357;SDS011;11346;50.150;8.150;2022-09-16T09:15:40;16.70;;;1.70;;
22357;SDS011;11346;50.150;8.150;2022-09-16T09:18:12;4.17;;;1.20;;
22357;SDS011;11346;50.150;8.150;2022-09-16T09:20:46;2.33;;;1.10;;
22357;SDS011;11346;50.150;8.150;2022-09-16T09:23:22;3.63;;;1.10;;
22357;SDS011;11346;50.150;8.150;2022-09-16T09:25:54;8.50;;;1.23;;
22357;SDS011;11346;50.150;8.150;2022-09-16T09:28:33;4.60;;;1.20;;
22357;SDS011;11346;50.150;8.150;2022-09-16T09:31:03;2.90;;;1.27;;
22357;SDS011;11346;50.150;8.150;2022-09-16T09:33:33;3.63;;;1.17;;
22357;SDS011;11346;50.150;8.150;2022-09-16T09:36:16;2.67;;;1.10;;
22357;SDS011;11346;50.150;8.150;2022-09-16T09:38:53;2.57;;;1.37;;
22357;SDS011;11346;50.150;8.150;2022-09-16T09:41:23;3.83;;;1.20;;
22357;SDS011;11346;50.150;8.150;2022-09-16T09:43:52;1.70;;;1.20;;
22357;SDS011;11346;50.150;8.150;2022-09-16T09:46:22;2.27;;;1.10;;
22357;SDS011;11346;50.150;8.150;2022-09-16T09:48:52;4.77;;;1.27;;
22357;SDS011;11346;50.150;8.150;2022-09-16T09:51:24;3.57;;;1.20;;
22357;SDS011;11346;50.150;8.150;2022-09-16T09:53:57;3.40;;;1.10;;
22357;SDS011;11346;50.150;8.150;2022-09-16T09:56:26;3.17;;;1.20;;
22357;SDS011;11346;50.150;8.150;2022-09-16T09:58:56;2.73;;;1.00;;
22357;SDS011;11346;50.150;8.150;2022-09-16T10:01:24;2.73;;;1.00;;
22357;SDS011;11346;50.150;8.150;2022-09-16T10:03:51;5.67;;;1.20;;
22357;SDS011;11346;50.150;8.150;2022-09-16T10:06:22;4.40;;;1.30;;
22357;SDS011;11346;50.150;8.150;2022-09-16T10:08:51;5.43;;;1.30;;
22357;SDS011;11346;50.150;8.150;2022-09-16T10:11:20;3.73;;;0.97;;
22357;SDS011;11346;50.150;8.150;2022-09-16T10:13:48;3.33;;;1.07;;
22357;SDS011;11346;50.150;8.150;2022-09-16T10:16:17;3.50;;;1.10;;
22357;SDS011;11346;50.150;8.150;2022-09-16T10:18:51;2.03;;;1.00;;
22357;SDS011;11346;50.150;8.150;2022-09-16T10:21:20;4.40;;;1.20;;
22357;SDS011;11346;50.150;8.150;2022-09-16T10:23:53;2.17;;;0.90;;
22357;SDS011;11346;50.150;8.150;2022-09-16T10:26:21;2.93;;;1.20;;
22357;SDS011;11346;50.150;8.150;2022-09-16T10:28:53;1.80;;;0.97;;
22357;SDS011;11346;50.150;8.150;2022-09-16T10:31:20;1.87;;;1.10;;
22357;SDS011;11346;50.150;8.150;2022-09-16T10:33:47;3.60;;;1.07;;
22357;SDS011;11346;50.150;8.150;2022-09-16T10:36:16;2.80;;;1.00;;
22357;SDS011;11346;50.150;8.150;2022-09-16T10:38:47;3.20;;;1.00;;
22357;SDS011;11346;50.150;8.150;2022-09-16T10:41:18;1.60;;;1.10;;
22357;SDS011;11346;50.150;8.150;2022-09-16T10:43:46;1.50;;;0.90;;
22357;SDS011;11346;50.150;8.150;2022-09-16T10:46:15;3.93;;;0.90;;
22357;SDS011;11346;50.150;8.150;2022-09-16T10:48:43;4.43;;;1.23;;
22357;SDS011;11346;50.150;8.150;2022-09-16T10:51:18;2.83;;;1.03;;
22357;SDS011;11346;50.150;8.150;2022-09-16T10:53:50;2.20;;;1.00;;
22357;SDS011;11346;50.150;8.150;2022-09-16T10:56:20;1.30;;;0.83;;
22357;SDS011;11346;50.150;8.150;2022-09-16T10:58:47;3.33;;;0.80;;
22357;SDS011;11346;50.150;8.150;2022-09-16T11:01:22;3.07;;;0.73;;
22357;SDS011;11346;50.150;8.150;2022-09-16T11:03:58;3.90;;;0.70;;
22357;SDS011;11346;50.150;8.150;2022-09-16T11:06:39;3.10;;;0.90;;
22357;SDS011;11346;50.150;8.150;2022-09-16T11:09:11;2.83;;;1.77;;
22357;SDS011;11346;50.150;8.150;2022-09-16T11:11:47;0.73;;;0.60;;
22357;SDS011;11346;50.150;8.150;2022-09-16T11:14:17;2.40;;;1.10;;
22357;SDS011;11346;50.150;8.150;2022-09-16T11:16:52;6.83;;;1.00;;
22357;SDS011;11346;50.150;8.150;2022-09-16T11:19:25;2.20;;;0.90;;
22357;SDS011;11346;50.150;8.150;2022-09-16T11:21:58;2.20;;;0.97;;
22357;SDS011;11346;50.150;8.150;2022-09-16T11:24:35;1.63;;;1.10;;
22357;SDS011;11346;50.150;8.150;2022-09-16T11:27:07;4.43;;;1.30;;
22357;SDS011;11346;50.150;8.150;2022-09-16T11:29:44;2.57;;;1.50;;
22357;SDS011;11346;50.150;8.150;2022-09-16T11:32:17;3.43;;;1.17;;
22357;SDS011;11346;50.150;8.150;2022-09-16T11:34:51;1.23;;;1.00;;
22357;SDS011;11346;50.150;8.150;2022-09-16T11:37:19;3.00;;;1.00;;
22357;SDS011;11346;50.150;8.150;2022-09-16T11:39:53;1.70;;;0.90;;
22357;SDS011;11346;50.150;8.150;2022-09-16T11:42:26;1.17;;;1.03;;
22357;SDS011;11346;50.150;8.150;2022-09-16T11:44:57;2.00;;;0.90;;
22357;SDS011;11346;50.150;8.150;2022-09-16T11:47:33;2.17;;;1.00;;
22357;SDS011;11346;50.150;8.150;2022-09-16T11:50:09;2.13;;;1.00;;
22357;SDS011;11346;50.150;8.150;2022-09-16T11:52:44;2.87;;;1.10;;
22357;SDS011;11346;50.150;8.150;2022-09-16T11:55:18;3.13;;;1.03;;
22357;SDS011;11346;50.150;8.150;2022-09-16T11:57:50;1.03;;;0.90;;
22357;SDS011;11346;50.150;8.150;2022-09-16T12:00:17;1.10;;;0.87;;
22357;SDS011;11346;50.150;8.150;2022-09-16T12:02:46;1.13;;;1.00;;
22357;SDS011;11346;50.150;8.150;2022-09-16T12:05:16;2.37;;;1.00;;
22357;SDS011;11346;50.150;8.150;2022-09-16T12:07:44;3.73;;;0.90;;
22357;SDS011;11346;50.150;8.150;2022-09-16T12:10:15;2.90;;;0.93;;
22357;SDS011;11346;50.150;8.150;2022-09-16T12:12:45;2.47;;;1.00;;
22357;SDS011;11346;50.150;8.150;2022-09-16T12:15:17;1.40;;;1.00;;
22357;SDS011;11346;50.150;8.150;2022-09-16T12:17:49;3.10;;;1.00;;
22357;SDS011;11346;50.150;8.150;2022-09-16T12:20:17;4.03;;;1.10;;
22357;SDS011;11346;50.150;8.150;2022-09-16T12:22:46;2.67;;;1.20;;
22357;SDS011;11346;50.150;8.150;2022-09-16T12:25:16;4.40;;;1.67;;
22357;SDS011;11346;50.150;8.150;2022-09-16T12:27:48;3.10;;;1.10;;
22357;SDS011;11346;50.150;8.150;2022-09-16T12:30:18;3.57;;;1.10;;
22357;SDS011;11346;50.150;8.150;2022-09-16T12:32:55;4.80;;;1.00;;
22357;SDS011;11346;50.150;8.150;2022-09-16T12:35:25;2.17;;;1.73;;
22357;SDS011;11346;50.150;8.150;2022-09-16T12:37:53;2.60;;;1.50;;
22357;SDS011;11346;50.150;8.150;2022-09-16T12:40:22;3.00;;;1.20;;
22357;SDS011;11346;50.150;8.150;2022-09-16T12:42:58;2.73;;;1.63;;
22357;SDS011;11346;50.150;8.150;2022-09-16T12:45:32;3.40;;;1.30;;
22357;SDS011;11346;50.150;8.150;2022-09-16T12:48:11;4.80;;;1.77;;
22357;SDS011;11346;50.150;8.150;2022-09-16T12:50:46;5.57;;;1.10;;
22357;SDS011;11346;50.150;8.150;2022-09-16T12:56:19;2.20;;;0.83;;
22357;SDS011;11346;50.150;8.150;2022-09-16T12:59:00;3.27;;;1.07;;
22357;SDS011;11346;50.150;8.150;2022-09-16T13:01:34;3.13;;;0.90;;
22357;SDS011;11346;50.150;8.150;2022-09-16T13:04:02;1.83;;;0.60;;
22357;SDS011;11346;50.150;8.150;2022-09-16T13:06:31;2.83;;;1.00;;
22357;SDS011;11346;50.150;8.150;2022-09-16T13:09:08;4.40;;;0.80;;
22357;SDS011;11346;50.150;8.150;2022-09-16T13:11:37;2.80;;;0.90;;
22357;SDS011;11346;50.150;8.150;2022-09-16T13:14:13;0.70;;;0.70;;
22357;SDS011;11346;50.150;8.150;2022-09-16T13:16:52;1.50;;;0.90;;
22357;SDS011;11346;50.150;8.150;2022-09-16T13:19:31;2.73;;;1.00;;
22357;SDS011;11346;50.150;8.150;2022-09-16T13:21:59;5.10;;;1.10;;
22357;SDS011;11346;50.150;8.150;2022-09-16T13:24:29;1.03;;;0.60;;
22357;SDS011;11346;50.150;8.150;2022-09-16T13:26:59;1.47;;;0.70;;
22357;SDS011;11346;50.150;8.150;2022-09-16T13:29:38;2.70;;;1.10;;
22357;SDS011;11346;50.150;8.150;2022-09-16T13:35:00;2.63;;;0.70;;
22357;SDS011;11346;50.150;8.150;2022-09-16T13:37:27;1.63;;;0.90;;
22357;SDS011;11346;50.150;8.150;2022-09-16T13:39:54;2.43;;;1.43;;
22357;SDS011;11346;50.150;8.150;2022-09-16T13:42:21;3.03;;;1.00;;
22357;SDS011;11346;50.150;8.150;2022-09-16T13:44:50;4.23;;;1.40;;
22357;SDS011;11346;50.150;8.150;2022-09-16T13:47:27;2.33;;;1.33;;
22357;SDS011;11346;50.150;8.150;2022-09-16T13:49:56;3.10;;;1.00;;
22357;SDS011;11346;50.150;8.150;2022-09-16T13:52:27;2.50;;;1.00;;
22357;SDS011;11346;50.150;8.150;2022-09-16T13:54:55;4.00;;;0.93;;
22357;SDS011;11346;50.150;8.150;2022-09-16T13:57:26;2.33;;;1.10;;
22357;SDS011;11346;50.150;8.150;2022-09-16T14:00:10;3.50;;;0.90;;
22357;SDS011;11346;50.150;8.150;2022-09-16T14:02:44;1.73;;;0.90;;
22357;SDS011;11346;50.150;8.150;2022-09-16T14:05:18;0.70;;;0.70;;
22357;SDS011;11346;50.150;8.150;2022-09-16T14:07:50;1.97;;;1.30;;
22357;SDS011;11346;50.150;8.150;2022-09-16T14:10:22;3.97;;;1.70;;
22357;SDS011;11346;50.150;8.150;2022-09-16T14:12:56;3.27;;;1.30;;
22357;SDS011;11346;50.150;8.150;2022-09-16T14:15:25;6.83;;;1.20;;
22357;SDS011;11346;50.150;8.150;2022-09-16T14:17:54;4.63;;;1.07;;
22357;SDS011;11346;50.150;8.150;2022-09-16T14:20:23;1.33;;;1.00;;
22357;SDS011;11346;50.150;8.150;2022-09-16T14:23:00;2.30;;;1.50;;
22357;SDS011;11346;50.150;8.150;2022-09-16T14:25:28;2.10;;;1.20;;
22357;SDS011;11346;50.150;8.150;2022-09-16T14:28:05;3.43;;;1.20;;
22357;SDS011;11346;50.150;8.150;2022-09-16T14:30:32;1.23;;;0.97;;
22357;SDS011;11346;50.150;8.150;2022-09-16T14:33:00;1.13;;;0.90;;
22357;SDS011;11346;50.150;8.150;2022-09-16T14:35:28;2.67;;;1.17;;
22357;SDS011;11346;50.150;8.150;2022-09-16T14:37:56;2.90;;;1.00;;
22357;SDS011;11346;50.150;8.150;2022-09-16T14:40:26;1.33;;;1.10;;
22357;SDS011;11346;50.150;8.150;2022-09-16T14:42:54;1.57;;;1.10;;
22357;SDS011;11346;50.150;8.150;2022-09-16T14:45:22;2.37;;;1.20;;
22357;SDS011;11346;50.150;8.150;2022-09-16T14:47:50;5.50;;;1.30;;
22357;SDS011;11346;50.150;8.150;2022-09-16T14:50:19;6.00;;;1.40;;
22357;SDS011;11346;50.150;8.150;2022-09-16T14:52:51;2.50;;;1.10;;
22357;SDS011;11346;50.150;8.150;2022-09-16T14:55:19;1.27;;;0.87;;
22357;SDS011;11346;50.150;8.150;2022-09-16T14:57:48;3.20;;;1.07;;
22357;SDS011;11346;50.150;8.150;2022-09-16T15:00:16;6.97;;;1.10;;
22357;SDS011;11346;50.150;8.150;2022-09-16T15:02:44;2.00;;;1.10;;
22357;SDS011;11346;50.150;8.150;2022-09-16T15:05:15;5.03;;;1.20;;
22357;SDS011;11346;50.150;8.150;2022-09-16T15:07:43;3.50;;;1.17;;
22357;SDS011;11346;50.150;8.150;2022-09-16T15:10:13;7.60;;;1.30;;
22357;SDS011;11346;50.150;8.150;2022-09-16T15:12:45;4.73;;;1.13;;
22357;SDS011;11346;50.150;8.150;2022-09-16T15:15:16;2.83;;;1.30;;
22357;SDS011;11346;50.150;8.150;2022-09-16T15:17:43;2.73;;;1.13;;